FW0929 Weather Reports


Display with metric or nautical units.
time (UTC)temp
F
wind
direction
speed
MPH
gust
MPH
rain 1hr
in
rain 24hr
in
rain mn
in
humidity
%
barometer
mb
20180820032510 71 69 2.0 5.0 0.00 0.00 0.00 89 1013.7
20180820031008 71 68 2.0 4.0 0.00 0.00 0.00 88 1013.7
20180820025510 71 51 3.0 9.0 0.00 0.00 0.00 88 1013.6
20180820024006 71 86 4.0 8.0 0.00 0.00 0.00 88 1013.7
20180820022507 71 62 2.0 4.0 0.00 0.00 0.00 88 1013.9
20180820021010 71 64 1.0 3.0 0.00 0.00 0.00 87 1013.8
20180820015510 72 71 2.0 6.0 0.00 0.00 0.00 86 1013.7
20180820014004 72 75 1.0 5.0 0.00 0.00 0.00 85 1013.5
20180820012509 72 81 2.0 8.0 0.00 0.00 0.00 84 1013.4
20180820011004 73 97 2.0 8.0 0.00 0.00 0.00 82 1013.3
20180820005502 73 61 3.0 8.0 0.00 0.00 0.00 81 1013.1
20180820004005 73 60 3.0 5.0 0.00 0.00 0.00 80 1013.3
20180820002503 74 68 2.0 6.0 0.00 0.00 0.00 79 1013.3
20180820001003 74 72 2.0 5.0 0.00 0.00 0.00 78 1013.2
20180819235459 75 58 2.0 4.0 0.00 0.00 0.00 78 1013.0
20180819234001 76 63 1.0 5.0 0.00 0.00 0.00 77 1012.9
20180819232501 76 65 1.0 4.0 0.00 0.00 0.00 77 1012.9
20180819231001 76 53 2.0 7.0 0.00 0.00 0.00 77 1012.7
20180819225459 77 90 3.0 8.0 0.00 0.00 0.00 75 1012.8
20180819223959 77 40 3.0 9.0 0.00 0.00 0.00 74 1012.8
20180819222456 78 98 3.0 7.0 0.00 0.00 0.00 73 1012.7
20180819220955 78 53 3.0 7.0 0.00 0.00 0.00 73 1012.9
20180819215455 79 144 5.0 11.0 0.00 0.00 0.00 72 1012.9
20180819213956 79 66 2.0 9.0 0.00 0.00 0.00 75 1013.0
20180819212453 79 74 3.0 12.0 0.00 0.00 0.00 72 1013.2
20180819210950 81 35 4.0 10.0 0.00 0.00 0.00 69 1013.2
20180819205451 81 18 3.0 8.0 0.00 0.00 0.00 71 1013.5
20180819203947 81 87 4.0 9.0 0.00 0.00 0.00 70 1013.6
20180819202445 81 84 4.0 9.0 0.00 0.00 0.00 68 1013.7
20180819200944 82 82 2.0 8.0 0.00 0.00 0.00 68 1013.9
20180819195447 83 80 1.0 7.0 0.00 0.00 0.00 68 1013.9
20180819193945 83 65 3.0 6.0 0.00 0.00 0.00 65 1014.1
20180819192443 82 57 0.0 3.0 0.00 0.00 0.00 66 1014.2
20180819190945 82 57 1.0 3.0 0.00 0.00 0.00 64 1014.2
20180819185440 83 111 2.0 6.0 0.00 0.00 0.00 64 1014.2
20180819183940 85 74 3.0 6.0 0.00 0.00 0.00 58 1014.3
20180819182442 86 245 2.0 6.0 0.00 0.00 0.00 54 1014.4
20180819180936 87 116 1.0 3.0 0.00 0.00 0.00 56 1014.6
20180819175436 86 256 1.0 4.0 0.00 0.00 0.00 59 1014.7
20180819173935 84 200 1.0 3.0 0.00 0.00 0.00 63 1014.8
20180819172431 83 80 1.0 3.0 0.00 0.00 0.00 63 1014.9
20180819170928 81 82 0.0 3.0 0.00 0.00 0.00 67 1015.0
20180819165430 81 84 1.0 4.0 0.00 0.00 0.00 67 1015.0
20180819163926 83 71 0.0 3.0 0.00 0.00 0.00 64 1014.9
20180819162422 80 73 1.0 3.0 0.00 0.00 0.00 70 1015.0
20180819160921 80 73 1.0 4.0 0.00 0.00 0.00 71 1015.0
20180819155419 79 305 1.0 5.0 0.00 0.00 0.00 72 1015.0
20180819153917 78 69 0.0 5.0 0.00 0.00 0.00 75 1015.1
20180819152417 78 59 2.0 4.0 0.00 0.00 0.00 76 1015.1
20180819150912 77 72 2.0 7.0 0.00 0.00 0.00 77 1014.9
20180819145412 76 34 2.0 5.0 0.00 0.00 0.00 80 1015.0
20180819143907 75 64 1.0 6.0 0.00 0.00 0.00 84 1015.0
20180819142401 73 74 3.0 7.0 0.00 0.00 0.00 87 1015.0
20180819140857 71 61 1.0 4.0 0.00 0.00 0.00 91 1015.2
20180819135354 70 61 1.0 4.0 0.00 0.00 0.00 94 1015.0
20180819133855 69 61 2.0 3.0 0.00 0.00 0.00 96 1014.8
20180819132349 69 61 0.0 3.0 0.00 0.00 0.00 96 1014.8
20180819130852 68 61 0.0 3.0 0.00 0.00 0.00 97 1014.8
20180819125349 67 61 1.0 3.0 0.00 0.00 0.00 97 1014.6
20180819123841 67 61 0.0 3.0 0.00 0.00 0.00 97 1014.7
20180819122340 66 61 0.0 0.0 0.00 0.00 0.00 96 1014.6
20180819120840 65 61 0.0 0.0 0.00 0.00 0.00 96 1014.9
20180819115339 65 61 0.0 2.0 0.00 0.00 0.00 96 1014.7
20180819113841 65 61 1.0 3.0 0.00 0.00 0.00 96 1014.7
20180819112338 65 61 0.0 0.0 0.00 0.00 0.00 96 1014.5
20180819110837 65 61 0.0 0.0 0.00 0.00 0.00 96 1014.3
20180819105336 65 61 0.0 0.0 0.00 0.00 0.00 96 1014.2
20180819103839 65 61 0.0 1.0 0.00 0.00 0.00 96 1014.4
20180819102335 65 61 0.0 2.0 0.00 0.00 0.00 96 1014.6
20180819100839 65 61 0.0 0.0 0.00 0.00 0.00 96 1014.4
20180819095334 64 61 0.0 0.0 0.00 0.01 0.00 96 1014.4
20180819093834 65 61 0.0 0.0 0.00 0.01 0.00 96 1014.4
20180819092332 64 61 0.0 0.0 0.00 0.01 0.00 96 1014.5
20180819090835 64 61 0.0 0.0 0.00 0.01 0.00 95 1014.3
20180819085336 64 61 0.0 0.0 0.00 0.01 0.00 95 1014.4
20180819083834 64 61 0.0 0.0 0.00 0.01 0.00 95 1014.3
20180819082332 65 61 0.0 0.0 0.00 0.01 0.00 95 1014.3
20180819080829 65 61 0.0 0.0 0.00 0.01 0.00 95 1014.3
20180819075330 65 61 0.0 0.0 0.00 0.01 0.00 95 1014.3
20180819073826 65 61 0.0 0.0 0.00 0.01 0.00 95 1014.3
20180819072329 66 61 0.0 1.0 0.00 0.01 0.00 95 1014.4
20180819070825 66 61 0.0 2.0 0.00 0.01 0.00 95 1014.5
20180819065324 65 61 0.0 0.0 0.00 0.01 0.00 94 1014.7
20180819063819 66 61 0.0 0.0 0.00 0.01 0.00 94 1014.7
20180819062318 66 61 0.0 0.0 0.00 0.01 0.00 94 1014.7
20180819060822 66 61 0.0 0.0 0.00 0.01 0.00 94 1014.7
20180819055320 66 61 0.0 1.0 0.00 0.01 0.01 94 1014.8
20180819053817 67 61 0.0 0.0 0.00 0.01 0.01 93 1014.9
20180819052316 67 61 0.0 0.0 0.00 0.01 0.01 94 1014.8
20180819050815 67 61 0.0 0.0 0.00 0.01 0.01 94 1014.9
20180819045315 67 61 0.0 1.0 0.00 0.01 0.01 94 1015.0
20180819043813 67 61 0.0 2.0 0.00 0.01 0.01 94 1015.0
20180819042317 67 61 0.0 1.0 0.00 0.01 0.01 94 1014.9
20180819040813 67 61 1.0 3.0 0.00 0.01 0.01 93 1014.9
20180819035316 67 61 0.0 2.0 0.00 0.01 0.01 93 1015.0
20180819033812 67 61 0.0 3.0 0.00 0.01 0.01 93 1014.9